Time;durP1;ratioP1;P1;durP2;ratioP2;P2;SDS_P1;SDS_P2;PMS_P1;PMS_P2;Temp;Humidity;BMP_temperature;BMP_pressure;BME280_temperature;BME280_humidity;BME280_pressure;Samples;Min_cycle;Max_cycle;Signal;HPM_P1;HPM_P2
2023/10/02 19:24:35;;;;;;;4.15;2.03;;;19.00;88.70;;;;;;5439220;24;20119;-74
2023/10/02 19:27:01;;;;;;;5.70;2.70;;;18.90;88.70;;;;;;4825217;29;20070;-74
2023/10/02 19:29:29;;;;;;;7.45;3.28;;;18.90;88.70;;;;;;4808649;29;20065;-73
2023/10/02 19:31:55;;;;;;;5.55;3.00;;;18.80;88.80;;;;;;4809262;29;20042;-74
2023/10/02 19:34:21;;;;;;;5.88;2.70;;;18.70;88.80;;;;;;4825678;29;20043;-74
2023/10/02 19:36:47;;;;;;;5.85;3.30;;;18.80;88.90;;;;;;4808472;29;20047;-75
2023/10/02 19:39:12;;;;;;;5.05;2.80;;;18.80;89.00;;;;;;4825522;29;20046;-74
2023/10/02 19:41:38;;;;;;;4.85;2.38;;;18.70;89.00;;;;;;4826111;29;20435;-75
2023/10/02 19:44:04;;;;;;;4.82;2.60;;;18.70;89.10;;;;;;4825759;29;20072;-75
2023/10/02 19:46:30;;;;;;;6.00;2.53;;;18.70;89.10;;;;;;4808467;29;20047;-75
2023/10/02 19:48:56;;;;;;;4.32;2.35;;;18.70;89.10;;;;;;4796581;29;20089;-76
2023/10/02 19:51:23;;;;;;;5.07;2.70;;;18.70;89.00;;;;;;4793831;29;20446;-76
2023/10/02 19:53:50;;;;;;;7.07;3.00;;;18.80;89.10;;;;;;4825390;29;20049;-75
2023/10/02 19:56:16;;;;;;;7.50;3.15;;;18.70;89.10;;;;;;4825883;29;20042;-75
2023/10/02 19:58:42;;;;;;;5.88;3.13;;;18.70;89.10;;;;;;4812601;29;20050;-76
2023/10/02 20:01:08;;;;;;;4.57;2.33;;;18.70;89.20;;;;;;4829235;29;20481;-76
2023/10/02 20:03:35;;;;;;;6.10;3.10;;;18.60;89.20;;;;;;4826075;29;20509;-76
2023/10/02 20:06:07;;;;;;;4.40;2.42;;;18.60;89.20;;;;;;4825232;29;20050;-76
2023/10/02 20:08:33;;;;;;;5.40;2.83;;;18.60;89.30;;;;;;4824698;29;20040;-76
2023/10/02 20:11:05;;;;;;;5.53;2.83;;;18.60;89.30;;;;;;4825117;29;20176;-76
2023/10/02 20:13:31;;;;;;;5.78;3.10;;;18.50;89.40;;;;;;4753862;30;20545;-76
2023/10/02 20:15:57;;;;;;;4.50;2.53;;;18.50;89.40;;;;;;4768853;30;20047;-76
2023/10/02 20:18:23;;;;;;;5.60;2.72;;;18.50;89.40;;;;;;4754038;30;20035;-81
2023/10/02 20:20:48;;;;;;;4.85;2.47;;;18.50;89.40;;;;;;4739501;30;20101;-78
2023/10/02 20:23:15;;;;;;;5.65;2.83;;;18.40;89.40;;;;;;4753348;30;20515;-77
2023/10/02 20:25:42;;;;;;;6.22;3.03;;;18.50;89.50;;;;;;4768557;30;20048;-79
2023/10/02 20:28:09;;;;;;;5.85;3.17;;;18.40;89.50;;;;;;4766378;30;20046;-79
2023/10/02 20:30:37;;;;;;;4.55;2.58;;;18.40;89.50;;;;;;4738349;30;20048;-80
2023/10/02 20:33:06;;;;;;;5.43;3.15;;;18.40;89.60;;;;;;4738478;30;20028;-79
2023/10/02 20:35:37;;;;;;;5.55;2.80;;;18.30;89.60;;;;;;4753278;30;20044;-79
2023/10/02 20:38:04;;;;;;;5.32;2.80;;;18.30;89.60;;;;;;4768689;30;20043;-80
2023/10/02 20:40:32;;;;;;;4.28;2.30;;;18.30;89.60;;;;;;4753476;30;20101;-79
2023/10/02 20:43:00;;;;;;;6.85;3.05;;;18.30;89.70;;;;;;4753405;30;20063;-79
2023/10/02 20:45:26;;;;;;;4.25;2.05;;;18.30;89.70;;;;;;4788569;29;20042;-79
2023/10/02 20:47:52;;;;;;;5.43;2.60;;;18.30;89.80;;;;;;4823997;29;20042;-79
2023/10/02 20:50:18;;;;;;;4.28;2.40;;;18.20;89.80;;;;;;4792935;29;20375;-79
2023/10/02 20:52:44;;;;;;;4.55;2.20;;;18.20;89.90;;;;;;4792783;29;20502;-79
2023/10/02 20:55:11;;;;;;;5.13;2.50;;;18.20;89.90;;;;;;4824464;29;20054;-79
2023/10/02 20:57:38;;;;;;;4.32;2.33;;;18.20;90.00;;;;;;4792578;29;20035;-79
2023/10/02 21:00:07;;;;;;;5.20;2.70;;;18.20;90.00;;;;;;4824515;29;20036;-80
2023/10/02 21:02:33;;;;;;;5.47;2.75;;;18.20;90.00;;;;;;4822472;29;20038;-79
2023/10/02 21:04:59;;;;;;;5.15;2.78;;;18.20;90.00;;;;;;4807530;29;20099;-80
2023/10/02 21:07:24;;;;;;;5.70;3.03;;;18.20;90.00;;;;;;4823985;29;20038;-79
2023/10/02 21:09:54;;;;;;;5.50;2.97;;;18.10;89.90;;;;;;4792394;29;20078;-79
2023/10/02 21:12:32;;;;;;;4.63;2.15;;;18.10;90.00;;;;;;4807598;29;20065;-79
2023/10/02 21:15:07;;;;;;;6.15;2.58;;;18.10;90.00;;;;;;4773239;29;20046;-79
2023/10/02 21:17:37;;;;;;;3.92;1.98;;;18.10;90.00;;;;;;4761261;29;20050;-78
2023/10/02 21:20:05;;;;;;;4.80;2.60;;;18.10;90.00;;;;;;4760086;29;20043;-79
2023/10/02 21:22:31;;;;;;;6.43;3.20;;;18.10;90.00;;;;;;4772904;29;20051;-78
2023/10/02 21:24:56;;;;;;;3.72;2.28;;;18.00;90.00;;;;;;4774425;29;20104;-78
2023/10/02 21:27:22;;;;;;;3.83;1.92;;;18.00;90.00;;;;;;4774272;29;20043;-79
2023/10/02 21:29:48;;;;;;;4.65;2.33;;;18.00;90.00;;;;;;4797895;29;20406;-79
2023/10/02 21:32:14;;;;;;;7.30;2.97;;;18.00;90.00;;;;;;4792155;29;20047;-79
2023/10/02 21:34:39;;;;;;;5.00;2.20;;;18.00;90.10;;;;;;4791929;29;20081;-80
2023/10/02 21:37:06;;;;;;;4.30;2.35;;;18.00;90.10;;;;;;4807041;29;20051;-79
2023/10/02 21:39:32;;;;;;;4.10;2.08;;;18.00;90.10;;;;;;4792042;29;20057;-78
2023/10/02 21:41:58;;;;;;;5.55;2.78;;;17.90;90.10;;;;;;4806863;29;20133;-79
2023/10/02 21:44:25;;;;;;;6.25;2.85;;;17.90;90.10;;;;;;4791984;29;20042;-79
2023/10/02 21:46:50;;;;;;;6.25;2.85;;;17.90;90.10;;;;;;4807375;29;20133;-79
2023/10/02 21:49:16;;;;;;;5.38;3.00;;;17.90;90.10;;;;;;4791877;29;20054;-78
2023/10/02 21:51:42;;;;;;;6.22;3.03;;;17.90;90.10;;;;;;4823339;29;20066;-78
2023/10/02 21:54:07;;;;;;;5.40;2.90;;;17.90;90.10;;;;;;4806514;29;20061;-79
2023/10/02 21:56:36;;;;;;;5.03;2.45;;;17.90;90.10;;;;;;4823383;29;20038;-79
2023/10/02 21:59:02;;;;;;;4.15;2.42;;;17.90;90.10;;;;;;4806227;29;20050;-78
2023/10/02 22:01:30;;;;;;;6.18;2.83;;;17.80;90.10;;;;;;4823004;29;20383;-79
2023/10/02 22:03:55;;;;;;;5.93;2.65;;;17.90;90.20;;;;;;4791874;29;20140;-79
2023/10/02 22:06:22;;;;;;;6.38;2.72;;;17.80;90.10;;;;;;4791894;29;20529;-79
2023/10/02 22:08:49;;;;;;;6.07;3.00;;;17.80;90.20;;;;;;4803205;29;20138;-79
2023/10/02 22:11:15;;;;;;;6.53;3.05;;;17.80;90.20;;;;;;4806410;29;20054;-79
2023/10/02 22:13:43;;;;;;;5.05;3.00;;;17.70;90.20;;;;;;4791561;29;20042;-79
2023/10/02 22:16:10;;;;;;;5.93;2.67;;;17.70;90.20;;;;;;4791693;29;20046;-79
2023/10/02 22:18:36;;;;;;;6.20;3.03;;;17.70;90.30;;;;;;4791438;29;20125;-79
2023/10/02 22:21:11;;;;;;;6.30;3.30;;;17.60;90.30;;;;;;4806280;29;20137;-79
2023/10/02 22:23:38;;;;;;;5.03;2.40;;;17.70;90.30;;;;;;4808291;29;20058;-78
2023/10/02 22:26:05;;;;;;;5.03;2.80;;;17.60;90.30;;;;;;4791333;29;20413;-78
2023/10/02 22:28:34;;;;;;;6.18;2.63;;;17.60;90.30;;;;;;4806379;29;20054;-79
2023/10/02 22:31:01;;;;;;;4.82;2.60;;;17.60;90.40;;;;;;4806502;29;20161;-78
2023/10/02 22:33:28;;;;;;;4.65;2.45;;;17.60;90.40;;;;;;4822733;29;20405;-79
2023/10/02 22:35:54;;;;;;;5.05;2.85;;;17.50;90.40;;;;;;4791626;29;20043;-79
2023/10/02 22:38:21;;;;;;;5.57;2.85;;;17.60;90.40;;;;;;4790026;29;20046;-79
2023/10/02 22:40:47;;;;;;;3.40;1.90;;;17.60;90.30;;;;;;4806118;29;20046;-79
2023/10/02 22:43:13;;;;;;;5.20;2.85;;;17.50;90.30;;;;;;4806208;29;20449;-79
2023/10/02 22:45:39;;;;;;;4.63;2.40;;;17.60;90.30;;;;;;4791508;29;20050;-79
2023/10/02 22:48:08;;;;;;;4.55;2.35;;;17.60;90.30;;;;;;4791321;29;20057;-79
2023/10/02 22:50:38;;;;;;;4.60;2.03;;;17.60;90.30;;;;;;4822208;29;20084;-79
2023/10/02 22:53:06;;;;;;;4.97;2.38;;;17.70;90.40;;;;;;4806498;29;20038;-79
2023/10/02 22:55:32;;;;;;;3.90;2.00;;;17.50;90.30;;;;;;4806412;29;20068;-79
2023/10/02 22:57:59;;;;;;;5.40;2.53;;;17.50;90.30;;;;;;4806524;29;20043;-80
2023/10/02 23:00:29;;;;;;;4.30;2.35;;;17.60;90.30;;;;;;4805632;29;20062;-78
2023/10/02 23:02:56;;;;;;;5.05;2.60;;;17.60;90.30;;;;;;4806712;29;20512;-78
2023/10/02 23:05:24;;;;;;;4.55;2.38;;;17.50;90.30;;;;;;4790766;29;20165;-78
2023/10/02 23:07:51;;;;;;;5.30;2.50;;;17.50;90.40;;;;;;4806185;29;20137;-78
2023/10/02 23:10:18;;;;;;;6.10;2.95;;;17.50;90.40;;;;;;4805911;29;20050;-78
2023/10/02 23:12:45;;;;;;;5.40;2.40;;;17.50;90.40;;;;;;4825313;29;20066;-78
2023/10/02 23:15:11;;;;;;;6.22;3.03;;;17.50;90.40;;;;;;4823626;29;20105;-78
2023/10/02 23:17:38;;;;;;;6.20;3.03;;;17.40;90.40;;;;;;4793718;29;20069;-79
2023/10/02 23:20:10;;;;;;;5.53;2.63;;;17.50;90.40;;;;;;4825741;29;20050;-78
2023/10/02 23:22:36;;;;;;;6.43;2.83;;;17.40;90.40;;;;;;4808719;29;20054;-79
2023/10/02 23:25:03;;;;;;;5.53;2.63;;;17.40;90.40;;;;;;4808782;29;20528;-79
2023/10/02 23:27:31;;;;;;;5.75;2.42;;;17.40;90.40;;;;;;4794249;29;20054;-79
2023/10/02 23:29:57;;;;;;;4.72;2.00;;;17.40;90.40;;;;;;4807130;29;20047;-79
2023/10/02 23:32:24;;;;;;;3.92;1.83;;;17.40;90.40;;;;;;4825702;29;20042;-79
2023/10/02 23:34:50;;;;;;;5.07;2.38;;;17.30;90.40;;;;;;4825516;29;20046;-79
2023/10/02 23:37:17;;;;;;;4.88;2.20;;;17.30;90.40;;;;;;4825044;29;20039;-79
2023/10/02 23:39:42;;;;;;;4.85;2.50;;;17.30;90.50;;;;;;4805813;29;20145;-79
2023/10/02 23:42:09;;;;;;;4.25;2.28;;;17.30;90.40;;;;;;4808762;29;20141;-79
2023/10/02 23:44:36;;;;;;;5.55;2.47;;;17.30;90.50;;;;;;4808625;29;20073;-79
2023/10/02 23:47:05;;;;;;;4.85;2.42;;;17.30;90.50;;;;;;4793639;29;20501;-79
2023/10/02 23:49:31;;;;;;;5.38;2.70;;;17.30;90.50;;;;;;4823769;29;20085;-78
2023/10/02 23:51:59;;;;;;;5.03;2.45;;;17.30;90.40;;;;;;4808186;29;20057;-78
2023/10/02 23:54:26;;;;;;;4.43;2.25;;;17.30;90.50;;;;;;4808290;29;20050;-79
2023/10/02 23:56:51;;;;;;;4.45;2.13;;;17.30;90.50;;;;;;4793580;29;20072;-79
2023/10/02 23:59:17;;;;;;;4.55;2.47;;;17.20;90.50;;;;;;4808430;29;20115;-78
